createdAt,value
2023-04-09T00:01:10.029Z,10.65
2023-04-09T00:03:38.714Z,10.05
2023-04-09T00:06:07.122Z,9.59
2023-04-09T00:08:35.534Z,9.21
2023-04-09T00:11:04.273Z,9.04
2023-04-09T00:13:39.014Z,9.68
2023-04-09T00:16:08.580Z,10.43
2023-04-09T00:18:37.026Z,10.92
2023-04-09T00:21:05.778Z,11.30
2023-04-09T00:23:34.682Z,11.60
2023-04-09T00:26:02.843Z,11.85
2023-04-09T00:28:31.517Z,12.06
2023-04-09T00:30:59.956Z,12.22
2023-04-09T00:33:28.249Z,12.34
2023-04-09T00:35:59.579Z,12.42
2023-04-09T00:38:27.852Z,12.50
2023-04-09T00:40:56.323Z,12.59
2023-04-09T00:43:24.580Z,12.66
2023-04-09T00:46:13.471Z,12.68
2023-04-09T00:48:42.404Z,12.69
2023-04-09T00:51:11.008Z,12.68
2023-04-09T00:53:39.357Z,12.62
2023-04-09T00:56:11.529Z,12.51
2023-04-09T00:58:41.340Z,12.45
2023-04-09T01:01:09.793Z,12.39
2023-04-09T01:03:38.196Z,12.39
2023-04-09T01:06:22.201Z,12.40
2023-04-09T01:08:57.192Z,12.46
2023-04-09T01:11:32.285Z,12.53
2023-04-09T01:14:23.519Z,12.60
2023-04-09T01:17:32.137Z,12.69
2023-04-09T01:20:06.000Z,12.76
2023-04-09T01:23:25.883Z,12.83
2023-04-09T01:26:13.332Z,12.83
2023-04-09T01:28:54.844Z,11.96
2023-04-09T01:31:36.147Z,11.08
2023-04-09T01:34:05.605Z,10.33
2023-04-09T01:36:33.713Z,9.76
2023-04-09T01:39:02.519Z,9.24
2023-04-09T01:41:32.790Z,8.85
2023-04-09T01:44:02.073Z,9.25
2023-04-09T01:46:30.326Z,9.91
2023-04-09T01:48:58.462Z,10.41
2023-04-09T01:51:27.447Z,10.77
2023-04-09T01:53:56.268Z,11.07
2023-04-09T01:56:24.441Z,11.29
2023-04-09T01:58:52.875Z,11.48
2023-04-09T02:01:46.331Z,11.63
2023-04-09T02:04:25.004Z,11.72
2023-04-09T02:07:03.704Z,11.82
2023-04-09T02:09:32.265Z,11.93
2023-04-09T02:12:04.008Z,12.01
2023-04-09T02:14:33.170Z,12.03
2023-04-09T02:17:01.605Z,12.04
2023-04-09T02:19:43.664Z,12.10
2023-04-09T02:22:12.382Z,12.17
2023-04-09T02:24:40.849Z,12.22
2023-04-09T02:27:09.044Z,12.28
2023-04-09T02:29:40.395Z,12.31
2023-04-09T02:32:08.970Z,11.91
2023-04-09T02:34:37.150Z,10.86
2023-04-09T02:37:05.311Z,9.96
2023-04-09T02:39:34.726Z,9.31
2023-04-09T02:42:04.125Z,8.97
2023-04-09T02:44:32.495Z,9.42
2023-04-09T02:47:01.022Z,9.91
2023-04-09T02:49:29.254Z,10.26
2023-04-09T02:51:57.632Z,10.54
2023-04-09T02:54:26.053Z,10.79
2023-04-09T02:56:54.241Z,10.98
2023-04-09T02:59:22.778Z,11.13
2023-04-09T03:01:51.221Z,11.24
2023-04-09T03:04:19.620Z,11.12
2023-04-09T03:06:48.202Z,11.14
2023-04-09T03:09:16.494Z,11.22
2023-04-09T03:11:44.676Z,11.32
2023-04-09T03:14:12.794Z,11.45
2023-04-09T03:16:41.379Z,11.56
2023-04-09T03:19:09.640Z,11.65
2023-04-09T03:21:38.262Z,11.73
2023-04-09T03:24:07.189Z,11.84
2023-04-09T03:26:38.296Z,11.93
2023-04-09T03:29:07.560Z,12.00
2023-04-09T03:31:35.712Z,12.00
2023-04-09T03:34:03.942Z,11.34
2023-04-09T03:36:33.122Z,10.42
2023-04-09T03:39:05.447Z,9.61
2023-04-09T03:41:39.161Z,8.86
2023-04-09T03:44:10.887Z,8.29
2023-04-09T03:46:57.187Z,7.85
2023-04-09T03:49:26.010Z,7.53
2023-04-09T03:51:55.866Z,7.23
2023-04-09T03:54:30.547Z,6.96
2023-04-09T03:56:59.178Z,6.73
2023-04-09T03:59:27.277Z,6.51
2023-04-09T04:01:55.734Z,6.32
2023-04-09T04:04:24.232Z,6.14
2023-04-09T04:06:58.076Z,5.99
2023-04-09T04:09:31.907Z,5.96
2023-04-09T04:12:06.799Z,6.75
2023-04-09T04:14:53.755Z,7.97
2023-04-09T04:17:30.814Z,9.07
2023-04-09T04:19:59.186Z,9.81
2023-04-09T04:22:35.932Z,10.44
2023-04-09T04:25:06.222Z,10.92
2023-04-09T04:27:34.487Z,11.08
2023-04-09T04:30:10.769Z,11.17
2023-04-09T04:32:48.957Z,11.26
2023-04-09T04:35:18.025Z,11.28
2023-04-09T04:37:46.762Z,11.36
2023-04-09T04:40:17.420Z,11.56
2023-04-09T04:42:46.666Z,11.78
2023-04-09T04:45:19.804Z,11.93
2023-04-09T04:47:52.356Z,12.13
2023-04-09T04:50:20.775Z,12.22
2023-04-09T04:52:59.118Z,11.96
2023-04-09T04:55:30.261Z,11.06
2023-04-09T04:57:59.353Z,10.29
2023-04-09T05:00:32.226Z,9.77
2023-04-09T05:03:02.586Z,9.69
2023-04-09T05:05:45.584Z,10.84
2023-04-09T05:08:14.672Z,12.12
2023-04-09T05:10:43.955Z,12.92
2023-04-09T05:13:14.331Z,12.51
2023-04-09T05:15:42.765Z,11.38
2023-04-09T05:18:14.213Z,10.44
2023-04-09T05:20:42.685Z,9.81
2023-04-09T05:23:34.772Z,9.60
2023-04-09T05:26:19.338Z,11.07
2023-04-09T05:28:56.878Z,12.28
2023-04-09T05:31:25.669Z,12.77
2023-04-09T05:34:20.785Z,13.05
2023-04-09T05:36:51.941Z,12.81
2023-04-09T05:39:44.284Z,11.96
2023-04-09T05:42:33.432Z,11.05
2023-04-09T05:45:08.444Z,10.49
2023-04-09T05:47:36.830Z,11.23
2023-04-09T05:50:34.384Z,11.93
2023-04-09T05:53:32.513Z,12.53
2023-04-09T05:56:01.161Z,12.86
2023-04-09T05:58:41.142Z,13.23
2023-04-09T06:01:29.944Z,13.58
2023-04-09T06:04:01.158Z,13.81
2023-04-09T06:06:31.517Z,13.27
2023-04-09T06:09:01.537Z,12.61
2023-04-09T06:11:35.841Z,12.04
2023-04-09T06:14:18.207Z,11.74
2023-04-09T06:16:47.022Z,12.78
2023-04-09T06:19:30.593Z,14.09
2023-04-09T06:22:11.262Z,14.82
2023-04-09T06:24:39.684Z,14.55
2023-04-09T06:27:08.315Z,13.70
2023-04-09T06:29:36.586Z,13.00
2023-04-09T06:32:11.095Z,12.53
2023-04-09T06:34:41.971Z,12.15
2023-04-09T06:37:10.072Z,12.04
2023-04-09T06:39:40.390Z,12.97
2023-04-09T06:42:30.994Z,13.91
2023-04-09T06:45:19.621Z,14.49
2023-04-09T06:47:48.478Z,14.96
2023-04-09T06:50:17.265Z,14.77
2023-04-09T06:52:47.324Z,14.11
2023-04-09T06:55:24.800Z,13.64
2023-04-09T06:58:02.958Z,13.30
2023-04-09T07:00:31.524Z,13.08
2023-04-09T07:04:02.025Z,13.00
2023-04-09T07:07:00.250Z,12.89
2023-04-09T07:09:37.798Z,12.79
2023-04-09T07:12:06.204Z,12.78
2023-04-09T07:14:57.761Z,13.03
2023-04-09T07:18:13.538Z,14.29
2023-04-09T07:20:41.879Z,15.78
2023-04-09T07:23:59.867Z,16.15
2023-04-09T07:26:31.296Z,15.74
2023-04-09T07:29:03.936Z,15.95
2023-04-09T07:31:35.254Z,16.69
2023-04-09T07:34:32.400Z,17.60
2023-04-09T07:37:23.447Z,18.51
2023-04-09T07:40:04.155Z,19.31
2023-04-09T07:42:53.874Z,20.16
2023-04-09T07:45:25.845Z,20.74
2023-04-09T07:47:56.931Z,20.81
2023-04-09T07:50:48.424Z,20.67
2023-04-09T07:53:16.758Z,20.40
2023-04-09T07:55:45.115Z,19.51
2023-04-09T07:58:54.576Z,18.62
2023-04-09T08:01:37.781Z,17.63
2023-04-09T08:04:13.403Z,16.99
2023-04-09T08:06:50.029Z,16.59
2023-04-09T08:09:59.160Z,16.20
2023-04-09T08:13:31.133Z,15.94
2023-04-09T08:16:21.452Z,16.14
2023-04-09T08:19:00.547Z,16.36
2023-04-09T08:21:49.877Z,16.37
2023-04-09T08:24:18.728Z,16.34
2023-04-09T08:26:47.357Z,16.55
2023-04-09T08:29:18.475Z,16.49
2023-04-09T08:31:49.236Z,16.07
2023-04-09T08:34:21.125Z,15.68
2023-04-09T08:36:52.015Z,15.57
2023-04-09T08:39:23.616Z,15.52
2023-04-09T08:42:55.832Z,15.42
2023-04-09T08:45:30.309Z,15.56
2023-04-09T08:48:19.160Z,15.53
2023-04-09T08:51:01.095Z,15.54
2023-04-09T08:53:53.459Z,15.86
2023-04-09T08:56:31.241Z,16.23
2023-04-09T08:59:20.332Z,16.37
2023-04-09T09:02:17.238Z,16.36
2023-04-09T09:05:31.633Z,16.23
2023-04-09T09:08:26.925Z,16.04
2023-04-09T09:10:58.687Z,15.86
2023-04-09T09:13:39.585Z,15.64
2023-04-09T09:16:21.838Z,15.56
2023-04-09T09:18:50.879Z,15.69
2023-04-09T09:21:23.458Z,15.71
2023-04-09T09:23:54.749Z,15.45
2023-04-09T09:27:12.331Z,15.18
2023-04-09T09:30:22.776Z,15.17
2023-04-09T09:33:12.580Z,15.11
2023-04-09T09:36:25.686Z,15.13
2023-04-09T09:39:02.253Z,15.33
2023-04-09T09:41:30.750Z,15.42
2023-04-09T09:43:58.950Z,15.64
2023-04-09T09:46:42.713Z,15.26
2023-04-09T09:49:11.469Z,15.21
2023-04-09T09:51:40.881Z,15.11
2023-04-09T09:54:28.176Z,14.94
2023-04-09T09:56:59.946Z,14.77
2023-04-09T09:59:32.661Z,14.49
2023-04-09T10:02:04.792Z,14.61
2023-04-09T10:04:38.789Z,14.80
2023-04-09T10:07:07.723Z,14.57
2023-04-09T10:09:36.397Z,14.32
2023-04-09T10:12:08.010Z,14.13
2023-04-09T10:15:04.602Z,13.88
2023-04-09T10:17:43.252Z,13.85
2023-04-09T10:20:24.345Z,13.81
2023-04-09T10:22:55.334Z,13.89
2023-04-09T10:25:46.650Z,14.11
2023-04-09T10:28:17.739Z,14.23
2023-04-09T10:30:46.663Z,14.02
2023-04-09T10:33:19.571Z,13.72
2023-04-09T10:36:31.921Z,13.60
2023-04-09T10:39:20.736Z,13.30
2023-04-09T10:41:50.535Z,13.16
2023-04-09T10:44:22.794Z,13.67
2023-04-09T10:46:56.587Z,14.58
2023-04-09T10:49:52.429Z,15.34
2023-04-09T10:52:44.671Z,15.23
2023-04-09T10:55:49.520Z,14.59
2023-04-09T10:58:18.035Z,14.16
2023-04-09T11:01:37.160Z,13.94
2023-04-09T11:04:56.703Z,13.68
2023-04-09T11:08:17.200Z,13.52
2023-04-09T11:11:06.556Z,13.53
2023-04-09T11:14:09.048Z,13.50
2023-04-09T11:16:38.552Z,13.56
2023-04-09T11:19:08.257Z,13.82
2023-04-09T11:22:17.155Z,14.27
2023-04-09T11:24:50.980Z,14.93
2023-04-09T11:27:19.736Z,15.49
2023-04-09T11:30:29.190Z,15.96
2023-04-09T11:33:38.009Z,16.38
2023-04-09T11:36:16.549Z,16.71
2023-04-09T11:38:48.812Z,16.88
2023-04-09T11:42:00.946Z,16.49
2023-04-09T11:44:31.162Z,15.89
2023-04-09T11:47:10.659Z,15.51
2023-04-09T11:49:39.514Z,15.27
2023-04-09T11:52:32.788Z,15.15
2023-04-09T11:55:17.807Z,15.01
2023-04-09T11:58:03.310Z,14.93
2023-04-09T12:00:31.718Z,14.77
2023-04-09T12:03:06.762Z,14.66
2023-04-09T12:05:42.825Z,14.54
2023-04-09T12:08:26.557Z,14.37
2023-04-09T12:11:16.236Z,14.27
2023-04-09T12:14:03.146Z,14.26
2023-04-09T12:16:52.443Z,14.33
2023-04-09T12:20:03.528Z,14.42
2023-04-09T12:22:51.403Z,14.53
2023-04-09T12:25:19.613Z,14.63
2023-04-09T12:27:47.709Z,14.63
2023-04-09T12:30:18.997Z,14.61
2023-04-09T12:32:47.397Z,14.58
2023-04-09T12:36:23.852Z,14.50
2023-04-09T12:38:52.363Z,14.50
2023-04-09T12:41:20.816Z,14.50
2023-04-09T12:44:17.023Z,14.48
2023-04-09T12:46:48.581Z,14.48
2023-04-09T12:49:25.900Z,14.48
2023-04-09T12:51:59.913Z,14.54
2023-04-09T12:54:28.137Z,14.59
2023-04-09T12:57:24.222Z,14.65
2023-04-09T13:00:04.787Z,14.75
2023-04-09T13:02:34.392Z,14.81
2023-04-09T13:05:04.337Z,14.83
2023-04-09T13:07:42.903Z,14.83
2023-04-09T13:10:11.979Z,14.88
2023-04-09T13:14:01.138Z,14.93
2023-04-09T13:16:56.923Z,14.84
2023-04-09T13:19:26.012Z,14.82
2023-04-09T13:22:09.437Z,14.73
2023-04-09T13:24:39.018Z,14.68
2023-04-09T13:27:11.391Z,14.69
2023-04-09T13:29:43.280Z,14.67
2023-04-09T13:32:11.645Z,14.60
2023-04-09T13:36:01.060Z,14.59
2023-04-09T13:38:49.934Z,14.64
2023-04-09T13:41:18.528Z,14.71
2023-04-09T13:44:34.889Z,14.79
2023-04-09T13:47:17.550Z,14.87
2023-04-09T13:49:46.372Z,14.97
2023-04-09T13:53:05.332Z,15.07
2023-04-09T13:55:56.882Z,15.21
2023-04-09T13:58:25.414Z,15.18
2023-04-09T14:01:08.057Z,15.13
2023-04-09T14:03:38.645Z,15.13
2023-04-09T14:06:11.054Z,15.13
2023-04-09T14:09:00.799Z,15.12
2023-04-09T14:12:01.682Z,15.07
2023-04-09T14:14:44.904Z,14.93
2023-04-09T14:17:33.732Z,14.85
2023-04-09T14:20:03.918Z,14.77
2023-04-09T14:22:43.227Z,14.68
2023-04-09T14:25:14.540Z,14.61
2023-04-09T14:27:57.535Z,14.56
2023-04-09T14:30:25.918Z,14.45
2023-04-09T14:33:14.526Z,14.32
2023-04-09T14:35:46.527Z,14.22
2023-04-09T14:38:14.803Z,14.14
2023-04-09T14:40:43.132Z,14.07
2023-04-09T14:43:31.584Z,14.03
2023-04-09T14:46:00.082Z,14.04
2023-04-09T14:48:40.439Z,14.08
2023-04-09T14:51:15.062Z,14.14
2023-04-09T14:53:43.509Z,14.19
2023-04-09T14:56:12.181Z,14.21
2023-04-09T14:58:40.250Z,14.23
2023-04-09T15:01:11.485Z,14.25
2023-04-09T15:03:42.326Z,14.21
2023-04-09T15:06:13.858Z,14.17
2023-04-09T15:08:42.208Z,14.14
2023-04-09T15:11:18.173Z,14.11
2023-04-09T15:13:46.380Z,14.07
2023-04-09T15:16:26.042Z,14.03
2023-04-09T15:18:56.352Z,13.98
2023-04-09T15:21:24.631Z,13.90
2023-04-09T15:23:53.278Z,13.80
2023-04-09T15:26:21.643Z,13.71
2023-04-09T15:28:49.909Z,13.65
2023-04-09T15:31:18.032Z,13.60
2023-04-09T15:33:47.059Z,13.52
2023-04-09T15:36:15.632Z,13.47
2023-04-09T15:38:43.776Z,13.41
2023-04-09T15:41:17.183Z,13.35
2023-04-09T15:43:48.016Z,13.30
2023-04-09T15:46:16.595Z,13.27
2023-04-09T15:48:47.874Z,13.24
2023-04-09T15:51:35.648Z,13.20
2023-04-09T15:54:04.388Z,13.16
2023-04-09T15:56:42.311Z,13.11
2023-04-09T15:59:10.908Z,13.08
2023-04-09T16:02:24.765Z,13.05
2023-04-09T16:04:56.614Z,13.02
2023-04-09T16:07:24.880Z,12.99
2023-04-09T16:10:14.724Z,12.96
2023-04-09T16:12:42.843Z,12.93
2023-04-09T16:16:03.756Z,12.91
2023-04-09T16:18:32.237Z,12.87
2023-04-09T16:21:04.402Z,12.82
2023-04-09T16:23:33.121Z,12.79
2023-04-09T16:26:21.721Z,12.76
2023-04-09T16:28:50.029Z,12.72
2023-04-09T16:31:18.676Z,12.68
2023-04-09T16:33:46.991Z,12.63
2023-04-09T16:36:15.554Z,12.59
2023-04-09T16:38:48.821Z,13.42
2023-04-09T16:41:17.162Z,15.04
2023-04-09T16:43:50.144Z,16.10
2023-04-09T16:46:24.393Z,16.62
2023-04-09T16:48:53.202Z,16.99
2023-04-09T16:51:21.984Z,16.45
2023-04-09T16:53:50.437Z,15.63
2023-04-09T16:56:18.696Z,15.03
2023-04-09T16:58:46.907Z,14.56
2023-04-09T17:01:38.064Z,14.19
2023-04-09T17:04:06.639Z,13.81
2023-04-09T17:06:38.281Z,13.51
2023-04-09T17:09:06.651Z,13.23
2023-04-09T17:11:35.577Z,12.96
2023-04-09T17:14:04.302Z,12.70
2023-04-09T17:16:38.133Z,12.47
2023-04-09T17:19:06.558Z,12.25
2023-04-09T17:21:56.685Z,12.04
2023-04-09T17:24:25.379Z,11.83
2023-04-09T17:26:53.560Z,11.67
2023-04-09T17:29:21.679Z,11.50
2023-04-09T17:31:53.349Z,11.36
2023-04-09T17:34:21.671Z,11.23
2023-04-09T17:36:56.387Z,11.11
2023-04-09T17:39:24.645Z,11.02
2023-04-09T17:42:13.421Z,10.92
2023-04-09T17:44:51.969Z,10.81
2023-04-09T17:47:43.846Z,10.73
2023-04-09T17:50:20.464Z,10.94
2023-04-09T17:52:48.618Z,12.47
2023-04-09T17:55:17.807Z,13.89
2023-04-09T17:58:06.403Z,15.05
2023-04-09T18:00:39.790Z,15.69
2023-04-09T18:03:08.332Z,16.15
2023-04-09T18:05:36.838Z,15.98
2023-04-09T18:08:27.886Z,15.01
2023-04-09T18:11:11.440Z,14.06
2023-04-09T18:13:44.511Z,13.39
2023-04-09T18:16:13.027Z,12.92
2023-04-09T18:18:52.984Z,12.52
2023-04-09T18:21:25.078Z,12.19
2023-04-09T18:23:53.186Z,11.91
2023-04-09T18:26:21.206Z,11.67
2023-04-09T18:28:49.422Z,11.43
2023-04-09T18:31:17.640Z,11.24
2023-04-09T18:33:45.858Z,11.06
2023-04-09T18:36:14.162Z,10.90
2023-04-09T18:38:42.523Z,10.75
2023-04-09T18:41:54.634Z,10.60
2023-04-09T18:44:29.628Z,10.45
2023-04-09T18:47:02.118Z,10.35
2023-04-09T18:49:30.424Z,10.24
2023-04-09T18:51:58.643Z,10.14
2023-04-09T18:54:26.779Z,10.06
2023-04-09T18:56:54.892Z,10.24
2023-04-09T18:59:34.762Z,11.58
2023-04-09T19:02:05.457Z,12.77
2023-04-09T19:04:39.943Z,13.28
2023-04-09T19:07:31.830Z,13.58
2023-04-09T19:10:00.515Z,13.90
2023-04-09T19:12:28.814Z,14.17
2023-04-09T19:14:57.039Z,14.41
2023-04-09T19:17:25.345Z,14.58
2023-04-09T19:19:56.953Z,14.71
2023-04-09T19:22:25.415Z,14.86
2023-04-09T19:25:02.616Z,15.00
2023-04-09T19:27:36.985Z,15.05
2023-04-09T19:30:06.512Z,14.41
2023-04-09T19:32:34.846Z,13.64
2023-04-09T19:35:07.644Z,13.05
2023-04-09T19:37:45.319Z,12.58
2023-04-09T19:40:16.977Z,12.16
2023-04-09T19:42:45.357Z,11.80
2023-04-09T19:45:13.722Z,11.51
2023-04-09T19:47:41.933Z,11.25
2023-04-09T19:50:11.456Z,11.02
2023-04-09T19:52:42.960Z,10.79
2023-04-09T19:55:11.127Z,10.60
2023-04-09T19:57:40.871Z,10.43
2023-04-09T20:00:10.038Z,10.28
2023-04-09T20:02:41.760Z,10.13
2023-04-09T20:05:10.653Z,10.00
2023-04-09T20:07:39.176Z,9.89
2023-04-09T20:10:10.489Z,10.11
2023-04-09T20:12:41.429Z,11.60
2023-04-09T20:15:10.466Z,12.90
2023-04-09T20:17:59.199Z,13.79
2023-04-09T20:20:27.457Z,14.26
2023-04-09T20:22:58.548Z,14.36
2023-04-09T20:25:33.844Z,14.46
2023-04-09T20:28:03.447Z,14.59
2023-04-09T20:30:32.271Z,14.90
2023-04-09T20:33:05.572Z,15.15
2023-04-09T20:35:37.265Z,14.46
2023-04-09T20:38:05.369Z,13.51
2023-04-09T20:40:47.659Z,12.74
2023-04-09T20:43:15.984Z,12.11
2023-04-09T20:45:53.355Z,11.65
2023-04-09T20:48:34.655Z,11.22
2023-04-09T20:51:08.368Z,10.88
2023-04-09T20:53:41.822Z,10.55
2023-04-09T20:56:32.256Z,10.27
2023-04-09T20:59:01.550Z,9.99
2023-04-09T21:01:29.977Z,9.79
2023-04-09T21:03:58.633Z,9.62
2023-04-09T21:06:27.065Z,9.48
2023-04-09T21:08:56.417Z,9.32
2023-04-09T21:11:45.400Z,9.16
2023-04-09T21:14:14.813Z,9.64
2023-04-09T21:16:45.950Z,10.64
2023-04-09T21:19:14.496Z,11.37
2023-04-09T21:21:42.769Z,11.88
2023-04-09T21:24:31.109Z,12.35
2023-04-09T21:27:13.684Z,13.17
2023-04-09T21:29:42.025Z,13.81
2023-04-09T21:32:31.423Z,14.09
2023-04-09T21:35:21.288Z,14.21
2023-04-09T21:37:49.776Z,14.29
2023-04-09T21:40:18.070Z,14.43
2023-04-09T21:42:49.682Z,14.84
2023-04-09T21:45:18.407Z,15.10
2023-04-09T21:47:46.923Z,14.34
2023-04-09T21:50:17.782Z,13.25
2023-04-09T21:52:49.336Z,12.39
2023-04-09T21:55:17.375Z,11.78
2023-04-09T21:57:45.647Z,11.31
2023-04-09T22:00:16.287Z,10.92
2023-04-09T22:02:44.771Z,10.57
2023-04-09T22:05:13.403Z,10.24
2023-04-09T22:07:42.569Z,9.94
2023-04-09T22:10:10.998Z,9.66
2023-04-09T22:12:39.414Z,9.42
2023-04-09T22:15:08.682Z,9.20
2023-04-09T22:17:37.063Z,9.02
2023-04-09T22:20:09.700Z,8.86
2023-04-09T22:22:38.019Z,8.73
2023-04-09T22:25:07.184Z,8.61
2023-04-09T22:27:35.392Z,9.21
2023-04-09T22:30:04.221Z,10.65
2023-04-09T22:32:33.537Z,11.79
2023-04-09T22:35:01.983Z,12.56
2023-04-09T22:37:30.314Z,13.16
2023-04-09T22:39:58.551Z,13.60
2023-04-09T22:42:27.408Z,13.94
2023-04-09T22:44:55.709Z,13.94
2023-04-09T22:47:24.307Z,13.96
2023-04-09T22:49:54.905Z,14.01
2023-04-09T22:52:23.144Z,13.88
2023-04-09T22:54:51.523Z,13.69
2023-04-09T22:57:22.626Z,13.72
2023-04-09T22:59:50.978Z,13.87
2023-04-09T23:02:19.338Z,13.95
2023-04-09T23:04:50.505Z,14.07
2023-04-09T23:07:18.576Z,14.16
2023-04-09T23:09:46.773Z,14.27
2023-04-09T23:12:14.914Z,14.38
2023-04-09T23:14:43.145Z,14.20
2023-04-09T23:17:11.378Z,13.31
2023-04-09T23:19:39.538Z,12.48
2023-04-09T23:22:07.897Z,11.81
2023-04-09T23:24:36.157Z,11.22
2023-04-09T23:27:04.653Z,10.78
2023-04-09T23:29:33.535Z,10.42
2023-04-09T23:32:35.556Z,10.11
2023-04-09T23:35:04.399Z,10.07
2023-04-09T23:37:33.052Z,10.85
2023-04-09T23:40:01.346Z,11.53
2023-04-09T23:42:33.058Z,12.06
2023-04-09T23:45:25.356Z,12.42
2023-04-09T23:47:53.634Z,12.71
2023-04-09T23:50:23.228Z,12.89
2023-04-09T23:52:51.724Z,13.03
2023-04-09T23:55:19.966Z,13.10
2023-04-09T23:57:48.250Z,13.13
